sensor_id;sensor_type;location;lat;lon;timestamp;P1;durP1;ratioP1;P2;durP2;ratioP2
3407;SDS011;1717;50.240;8.406;2023-03-01T00:01:38;12.43;;;8.57;;
3407;SDS011;1717;50.240;8.406;2023-03-01T00:04:05;14.03;;;10.13;;
3407;SDS011;1717;50.240;8.406;2023-03-01T00:06:33;11.73;;;10.07;;
3407;SDS011;1717;50.240;8.406;2023-03-01T00:09:00;13.98;;;9.25;;
3407;SDS011;1717;50.240;8.406;2023-03-01T00:11:27;18.43;;;10.97;;
3407;SDS011;1717;50.240;8.406;2023-03-01T00:13:57;18.50;;;9.73;;
3407;SDS011;1717;50.240;8.406;2023-03-01T00:16:26;12.87;;;9.57;;
3407;SDS011;1717;50.240;8.406;2023-03-01T00:18:55;17.13;;;10.30;;
3407;SDS011;1717;50.240;8.406;2023-03-01T00:21:23;14.93;;;10.60;;
3407;SDS011;1717;50.240;8.406;2023-03-01T00:23:51;16.13;;;8.45;;
3407;SDS011;1717;50.240;8.406;2023-03-01T00:26:20;15.65;;;10.05;;
3407;SDS011;1717;50.240;8.406;2023-03-01T00:28:50;16.53;;;10.90;;
3407;SDS011;1717;50.240;8.406;2023-03-01T00:31:18;12.40;;;8.68;;
3407;SDS011;1717;50.240;8.406;2023-03-01T00:33:46;13.70;;;10.30;;
3407;SDS011;1717;50.240;8.406;2023-03-01T00:36:14;16.07;;;10.90;;
3407;SDS011;1717;50.240;8.406;2023-03-01T00:38:42;15.20;;;11.07;;
3407;SDS011;1717;50.240;8.406;2023-03-01T00:41:12;13.00;;;9.80;;
3407;SDS011;1717;50.240;8.406;2023-03-01T00:43:40;18.08;;;11.18;;
3407;SDS011;1717;50.240;8.406;2023-03-01T00:46:07;17.40;;;11.95;;
3407;SDS011;1717;50.240;8.406;2023-03-01T00:48:36;14.50;;;10.50;;
3407;SDS011;1717;50.240;8.406;2023-03-01T00:51:04;14.63;;;10.55;;
3407;SDS011;1717;50.240;8.406;2023-03-01T00:53:32;18.02;;;11.57;;
3407;SDS011;1717;50.240;8.406;2023-03-01T00:55:59;15.73;;;10.90;;
3407;SDS011;1717;50.240;8.406;2023-03-01T00:58:28;16.73;;;11.52;;
3407;SDS011;1717;50.240;8.406;2023-03-01T01:00:55;13.43;;;10.32;;
3407;SDS011;1717;50.240;8.406;2023-03-01T01:03:22;11.55;;;9.65;;
3407;SDS011;1717;50.240;8.406;2023-03-01T01:05:50;14.03;;;10.60;;
3407;SDS011;1717;50.240;8.406;2023-03-01T01:08:17;16.15;;;10.60;;
3407;SDS011;1717;50.240;8.406;2023-03-01T01:10:44;13.00;;;9.85;;
3407;SDS011;1717;50.240;8.406;2023-03-01T01:13:11;11.80;;;9.43;;
3407;SDS011;1717;50.240;8.406;2023-03-01T01:15:39;15.65;;;9.43;;
3407;SDS011;1717;50.240;8.406;2023-03-01T01:18:07;14.02;;;10.75;;
3407;SDS011;1717;50.240;8.406;2023-03-01T01:20:34;17.08;;;11.35;;
3407;SDS011;1717;50.240;8.406;2023-03-01T01:23:02;15.10;;;11.00;;
3407;SDS011;1717;50.240;8.406;2023-03-01T01:25:33;16.73;;;10.48;;
3407;SDS011;1717;50.240;8.406;2023-03-01T01:28:01;15.77;;;10.77;;
3407;SDS011;1717;50.240;8.406;2023-03-01T01:30:28;14.18;;;10.30;;
3407;SDS011;1717;50.240;8.406;2023-03-01T01:32:56;17.65;;;11.35;;
3407;SDS011;1717;50.240;8.406;2023-03-01T01:35:23;14.35;;;10.63;;
3407;SDS011;1717;50.240;8.406;2023-03-01T01:37:49;18.95;;;11.95;;
3407;SDS011;1717;50.240;8.406;2023-03-01T01:40:16;16.05;;;11.18;;
3407;SDS011;1717;50.240;8.406;2023-03-01T01:42:43;19.37;;;11.53;;
3407;SDS011;1717;50.240;8.406;2023-03-01T01:45:28;13.68;;;11.45;;
3407;SDS011;1717;50.240;8.406;2023-03-01T01:47:58;14.48;;;10.98;;
3407;SDS011;1717;50.240;8.406;2023-03-01T01:50:29;15.88;;;10.95;;
3407;SDS011;1717;50.240;8.406;2023-03-01T01:53:03;17.10;;;11.45;;
3407;SDS011;1717;50.240;8.406;2023-03-01T01:55:32;15.40;;;10.50;;
3407;SDS011;1717;50.240;8.406;2023-03-01T01:58:02;17.92;;;10.48;;
3407;SDS011;1717;50.240;8.406;2023-03-01T02:00:33;15.75;;;11.35;;
3407;SDS011;1717;50.240;8.406;2023-03-01T02:03:02;14.43;;;10.38;;
3407;SDS011;1717;50.240;8.406;2023-03-01T02:05:35;14.77;;;11.10;;
3407;SDS011;1717;50.240;8.406;2023-03-01T02:08:08;14.97;;;10.47;;
3407;SDS011;1717;50.240;8.406;2023-03-01T02:10:38;16.70;;;11.05;;
3407;SDS011;1717;50.240;8.406;2023-03-01T02:13:07;20.33;;;11.45;;
3407;SDS011;1717;50.240;8.406;2023-03-01T02:15:34;13.95;;;10.88;;
3407;SDS011;1717;50.240;8.406;2023-03-01T02:18:04;18.13;;;11.02;;
3407;SDS011;1717;50.240;8.406;2023-03-01T02:20:33;16.90;;;11.52;;
3407;SDS011;1717;50.240;8.406;2023-03-01T02:23:04;14.93;;;10.80;;
3407;SDS011;1717;50.240;8.406;2023-03-01T02:25:35;16.00;;;11.15;;
3407;SDS011;1717;50.240;8.406;2023-03-01T02:28:08;23.80;;;12.35;;
3407;SDS011;1717;50.240;8.406;2023-03-01T02:30:39;17.05;;;11.68;;
3407;SDS011;1717;50.240;8.406;2023-03-01T02:33:27;16.27;;;12.10;;
3407;SDS011;1717;50.240;8.406;2023-03-01T02:35:57;16.63;;;11.75;;
3407;SDS011;1717;50.240;8.406;2023-03-01T02:38:26;13.10;;;11.00;;
3407;SDS011;1717;50.240;8.406;2023-03-01T02:40:54;21.48;;;13.10;;
3407;SDS011;1717;50.240;8.406;2023-03-01T02:43:24;21.17;;;13.57;;
3407;SDS011;1717;50.240;8.406;2023-03-01T02:45:57;15.40;;;11.45;;
3407;SDS011;1717;50.240;8.406;2023-03-01T02:48:25;18.25;;;12.00;;
3407;SDS011;1717;50.240;8.406;2023-03-01T02:50:55;20.63;;;12.75;;
3407;SDS011;1717;50.240;8.406;2023-03-01T02:53:34;13.95;;;11.90;;
3407;SDS011;1717;50.240;8.406;2023-03-01T02:56:07;16.10;;;11.57;;
3407;SDS011;1717;50.240;8.406;2023-03-01T02:58:38;17.58;;;11.70;;
3407;SDS011;1717;50.240;8.406;2023-03-01T03:01:12;18.65;;;11.25;;
3407;SDS011;1717;50.240;8.406;2023-03-01T03:03:40;16.97;;;11.57;;
3407;SDS011;1717;50.240;8.406;2023-03-01T03:06:07;21.73;;;13.10;;
3407;SDS011;1717;50.240;8.406;2023-03-01T03:08:34;19.05;;;11.98;;
3407;SDS011;1717;50.240;8.406;2023-03-01T03:11:01;18.43;;;12.13;;
3407;SDS011;1717;50.240;8.406;2023-03-01T03:13:29;23.57;;;13.80;;
3407;SDS011;1717;50.240;8.406;2023-03-01T03:15:57;20.05;;;12.32;;
3407;SDS011;1717;50.240;8.406;2023-03-01T03:18:25;13.90;;;11.65;;
3407;SDS011;1717;50.240;8.406;2023-03-01T03:20:53;18.75;;;12.93;;
3407;SDS011;1717;50.240;8.406;2023-03-01T03:23:21;19.00;;;13.23;;
3407;SDS011;1717;50.240;8.406;2023-03-01T03:25:48;22.75;;;13.18;;
3407;SDS011;1717;50.240;8.406;2023-03-01T03:28:15;20.70;;;12.73;;
3407;SDS011;1717;50.240;8.406;2023-03-01T03:30:44;22.33;;;14.33;;
3407;SDS011;1717;50.240;8.406;2023-03-01T03:33:12;22.27;;;13.15;;
3407;SDS011;1717;50.240;8.406;2023-03-01T03:35:41;21.50;;;13.68;;
3407;SDS011;1717;50.240;8.406;2023-03-01T03:38:11;17.08;;;13.25;;
3407;SDS011;1717;50.240;8.406;2023-03-01T03:40:43;19.63;;;13.07;;
3407;SDS011;1717;50.240;8.406;2023-03-01T03:43:12;21.60;;;13.10;;
3407;SDS011;1717;50.240;8.406;2023-03-01T03:45:40;23.50;;;13.05;;
3407;SDS011;1717;50.240;8.406;2023-03-01T03:48:09;21.67;;;13.73;;
3407;SDS011;1717;50.240;8.406;2023-03-01T03:50:36;18.23;;;11.82;;
3407;SDS011;1717;50.240;8.406;2023-03-01T03:53:05;22.80;;;12.85;;
3407;SDS011;1717;50.240;8.406;2023-03-01T03:55:34;21.42;;;13.38;;
3407;SDS011;1717;50.240;8.406;2023-03-01T03:58:04;21.95;;;13.68;;
3407;SDS011;1717;50.240;8.406;2023-03-01T04:00:33;20.40;;;12.65;;
3407;SDS011;1717;50.240;8.406;2023-03-01T04:03:01;28.67;;;14.55;;
3407;SDS011;1717;50.240;8.406;2023-03-01T04:05:28;21.80;;;13.77;;
3407;SDS011;1717;50.240;8.406;2023-03-01T04:07:56;20.45;;;13.25;;
3407;SDS011;1717;50.240;8.406;2023-03-01T04:10:34;20.23;;;13.27;;
3407;SDS011;1717;50.240;8.406;2023-03-01T04:13:02;23.53;;;14.40;;
3407;SDS011;1717;50.240;8.406;2023-03-01T04:15:29;22.38;;;13.07;;
3407;SDS011;1717;50.240;8.406;2023-03-01T04:17:57;20.45;;;12.57;;
3407;SDS011;1717;50.240;8.406;2023-03-01T04:20:26;22.17;;;14.05;;
3407;SDS011;1717;50.240;8.406;2023-03-01T04:22:56;22.98;;;15.77;;
3407;SDS011;1717;50.240;8.406;2023-03-01T04:25:37;25.60;;;15.40;;
3407;SDS011;1717;50.240;8.406;2023-03-01T04:28:05;19.08;;;13.55;;
3407;SDS011;1717;50.240;8.406;2023-03-01T04:30:32;22.08;;;13.77;;
3407;SDS011;1717;50.240;8.406;2023-03-01T04:33:01;22.45;;;14.02;;
3407;SDS011;1717;50.240;8.406;2023-03-01T04:35:29;21.92;;;13.48;;
3407;SDS011;1717;50.240;8.406;2023-03-01T04:37:56;19.92;;;13.80;;
3407;SDS011;1717;50.240;8.406;2023-03-01T04:40:23;21.10;;;13.80;;
3407;SDS011;1717;50.240;8.406;2023-03-01T04:42:51;19.27;;;13.65;;
3407;SDS011;1717;50.240;8.406;2023-03-01T04:45:18;24.10;;;14.10;;
3407;SDS011;1717;50.240;8.406;2023-03-01T04:47:46;16.63;;;12.50;;
3407;SDS011;1717;50.240;8.406;2023-03-01T04:50:14;24.17;;;14.57;;
3407;SDS011;1717;50.240;8.406;2023-03-01T04:52:42;23.98;;;14.60;;
3407;SDS011;1717;50.240;8.406;2023-03-01T04:55:10;21.88;;;14.02;;
3407;SDS011;1717;50.240;8.406;2023-03-01T04:57:37;22.38;;;14.70;;
3407;SDS011;1717;50.240;8.406;2023-03-01T05:00:07;23.38;;;14.77;;
3407;SDS011;1717;50.240;8.406;2023-03-01T05:02:46;24.13;;;15.95;;
3407;SDS011;1717;50.240;8.406;2023-03-01T05:05:18;23.43;;;13.20;;
3407;SDS011;1717;50.240;8.406;2023-03-01T05:07:51;21.95;;;13.68;;
3407;SDS011;1717;50.240;8.406;2023-03-01T05:10:19;23.40;;;16.10;;
3407;SDS011;1717;50.240;8.406;2023-03-01T05:12:45;21.50;;;14.05;;
3407;SDS011;1717;50.240;8.406;2023-03-01T05:15:15;23.85;;;14.70;;
3407;SDS011;1717;50.240;8.406;2023-03-01T05:17:46;24.50;;;13.18;;
3407;SDS011;1717;50.240;8.406;2023-03-01T05:20:16;19.83;;;13.37;;
3407;SDS011;1717;50.240;8.406;2023-03-01T05:22:47;21.60;;;14.48;;
3407;SDS011;1717;50.240;8.406;2023-03-01T05:25:14;24.38;;;14.75;;
3407;SDS011;1717;50.240;8.406;2023-03-01T05:27:42;23.10;;;14.68;;
3407;SDS011;1717;50.240;8.406;2023-03-01T05:30:10;26.90;;;15.27;;
3407;SDS011;1717;50.240;8.406;2023-03-01T05:32:43;31.67;;;14.98;;
3407;SDS011;1717;50.240;8.406;2023-03-01T05:35:11;32.95;;;14.75;;
3407;SDS011;1717;50.240;8.406;2023-03-01T05:37:40;20.30;;;14.95;;
3407;SDS011;1717;50.240;8.406;2023-03-01T05:40:08;25.48;;;15.48;;
3407;SDS011;1717;50.240;8.406;2023-03-01T05:42:40;27.77;;;17.08;;
3407;SDS011;1717;50.240;8.406;2023-03-01T05:45:09;25.95;;;16.17;;
3407;SDS011;1717;50.240;8.406;2023-03-01T05:47:37;24.80;;;14.85;;
3407;SDS011;1717;50.240;8.406;2023-03-01T05:50:10;26.90;;;16.55;;
3407;SDS011;1717;50.240;8.406;2023-03-01T05:52:38;23.73;;;14.38;;
3407;SDS011;1717;50.240;8.406;2023-03-01T05:55:05;25.35;;;15.70;;
3407;SDS011;1717;50.240;8.406;2023-03-01T05:57:33;29.77;;;16.27;;
3407;SDS011;1717;50.240;8.406;2023-03-01T06:00:00;27.35;;;16.23;;
3407;SDS011;1717;50.240;8.406;2023-03-01T06:02:27;25.65;;;17.20;;
3407;SDS011;1717;50.240;8.406;2023-03-01T06:04:54;23.92;;;14.55;;
3407;SDS011;1717;50.240;8.406;2023-03-01T06:07:22;24.13;;;15.32;;
3407;SDS011;1717;50.240;8.406;2023-03-01T06:09:49;25.60;;;15.55;;
3407;SDS011;1717;50.240;8.406;2023-03-01T06:12:16;27.63;;;17.25;;
3407;SDS011;1717;50.240;8.406;2023-03-01T06:14:43;24.98;;;15.82;;
3407;SDS011;1717;50.240;8.406;2023-03-01T06:17:12;23.88;;;16.00;;
3407;SDS011;1717;50.240;8.406;2023-03-01T06:19:39;27.23;;;15.05;;
3407;SDS011;1717;50.240;8.406;2023-03-01T06:22:06;24.17;;;16.13;;
3407;SDS011;1717;50.240;8.406;2023-03-01T06:24:34;25.63;;;16.17;;
3407;SDS011;1717;50.240;8.406;2023-03-01T06:27:01;24.15;;;14.38;;
3407;SDS011;1717;50.240;8.406;2023-03-01T06:29:28;26.25;;;15.07;;
3407;SDS011;1717;50.240;8.406;2023-03-01T06:31:55;23.52;;;15.52;;
3407;SDS011;1717;50.240;8.406;2023-03-01T06:34:22;25.35;;;14.80;;
3407;SDS011;1717;50.240;8.406;2023-03-01T06:36:48;32.20;;;16.08;;
3407;SDS011;1717;50.240;8.406;2023-03-01T06:39:15;21.33;;;14.40;;
3407;SDS011;1717;50.240;8.406;2023-03-01T06:41:44;24.10;;;15.50;;
3407;SDS011;1717;50.240;8.406;2023-03-01T06:44:11;21.95;;;14.50;;
3407;SDS011;1717;50.240;8.406;2023-03-01T06:46:38;20.10;;;13.73;;
3407;SDS011;1717;50.240;8.406;2023-03-01T06:49:05;30.92;;;16.33;;
3407;SDS011;1717;50.240;8.406;2023-03-01T06:51:34;27.17;;;16.90;;
3407;SDS011;1717;50.240;8.406;2023-03-01T06:54:02;25.85;;;14.82;;
3407;SDS011;1717;50.240;8.406;2023-03-01T06:56:29;25.67;;;15.52;;
3407;SDS011;1717;50.240;8.406;2023-03-01T06:58:57;24.67;;;14.77;;
3407;SDS011;1717;50.240;8.406;2023-03-01T07:01:25;21.13;;;14.57;;
3407;SDS011;1717;50.240;8.406;2023-03-01T07:03:51;23.45;;;15.07;;
3407;SDS011;1717;50.240;8.406;2023-03-01T07:06:18;26.73;;;14.30;;
3407;SDS011;1717;50.240;8.406;2023-03-01T07:08:45;23.13;;;14.50;;
3407;SDS011;1717;50.240;8.406;2023-03-01T07:11:12;22.48;;;15.20;;
3407;SDS011;1717;50.240;8.406;2023-03-01T07:13:39;21.52;;;14.20;;
3407;SDS011;1717;50.240;8.406;2023-03-01T07:16:08;19.65;;;14.23;;
3407;SDS011;1717;50.240;8.406;2023-03-01T07:18:35;23.35;;;14.18;;
3407;SDS011;1717;50.240;8.406;2023-03-01T07:21:05;23.17;;;15.02;;
3407;SDS011;1717;50.240;8.406;2023-03-01T07:23:32;25.00;;;14.85;;
3407;SDS011;1717;50.240;8.406;2023-03-01T07:25:59;25.27;;;14.55;;
3407;SDS011;1717;50.240;8.406;2023-03-01T07:28:26;26.83;;;14.57;;
3407;SDS011;1717;50.240;8.406;2023-03-01T07:30:53;25.35;;;15.05;;
3407;SDS011;1717;50.240;8.406;2023-03-01T07:33:22;23.85;;;14.93;;
3407;SDS011;1717;50.240;8.406;2023-03-01T07:35:55;22.88;;;15.50;;
3407;SDS011;1717;50.240;8.406;2023-03-01T07:38:23;22.48;;;14.23;;
3407;SDS011;1717;50.240;8.406;2023-03-01T07:40:50;20.45;;;15.07;;
3407;SDS011;1717;50.240;8.406;2023-03-01T07:43:17;25.75;;;15.45;;
3407;SDS011;1717;50.240;8.406;2023-03-01T07:45:44;22.95;;;14.32;;
3407;SDS011;1717;50.240;8.406;2023-03-01T07:48:11;21.63;;;13.80;;
3407;SDS011;1717;50.240;8.406;2023-03-01T07:50:39;26.15;;;16.17;;
3407;SDS011;1717;50.240;8.406;2023-03-01T07:53:06;26.10;;;15.98;;
3407;SDS011;1717;50.240;8.406;2023-03-01T07:55:33;23.65;;;15.38;;
3407;SDS011;1717;50.240;8.406;2023-03-01T07:58:00;26.70;;;15.20;;
3407;SDS011;1717;50.240;8.406;2023-03-01T08:00:27;23.08;;;14.65;;
3407;SDS011;1717;50.240;8.406;2023-03-01T08:02:54;22.52;;;15.10;;
3407;SDS011;1717;50.240;8.406;2023-03-01T08:05:24;23.35;;;14.90;;
3407;SDS011;1717;50.240;8.406;2023-03-01T08:07:52;25.38;;;15.27;;
3407;SDS011;1717;50.240;8.406;2023-03-01T08:10:19;31.53;;;16.93;;
3407;SDS011;1717;50.240;8.406;2023-03-01T08:12:47;20.90;;;14.40;;
3407;SDS011;1717;50.240;8.406;2023-03-01T08:15:16;26.00;;;16.10;;
3407;SDS011;1717;50.240;8.406;2023-03-01T08:17:43;28.95;;;17.05;;
3407;SDS011;1717;50.240;8.406;2023-03-01T08:20:10;25.77;;;14.53;;
3407;SDS011;1717;50.240;8.406;2023-03-01T08:22:38;25.02;;;14.43;;
3407;SDS011;1717;50.240;8.406;2023-03-01T08:25:07;29.38;;;16.60;;
3407;SDS011;1717;50.240;8.406;2023-03-01T08:27:34;33.15;;;16.83;;
3407;SDS011;1717;50.240;8.406;2023-03-01T08:30:01;22.40;;;14.40;;
3407;SDS011;1717;50.240;8.406;2023-03-01T08:32:28;22.88;;;15.10;;
3407;SDS011;1717;50.240;8.406;2023-03-01T08:34:55;29.48;;;16.77;;
3407;SDS011;1717;50.240;8.406;2023-03-01T08:37:22;26.20;;;14.32;;
3407;SDS011;1717;50.240;8.406;2023-03-01T08:39:49;23.45;;;16.33;;
3407;SDS011;1717;50.240;8.406;2023-03-01T08:42:17;27.17;;;14.65;;
3407;SDS011;1717;50.240;8.406;2023-03-01T08:44:44;28.83;;;15.60;;
3407;SDS011;1717;50.240;8.406;2023-03-01T08:47:11;26.80;;;16.20;;
3407;SDS011;1717;50.240;8.406;2023-03-01T08:49:38;23.02;;;15.93;;
3407;SDS011;1717;50.240;8.406;2023-03-01T08:52:05;21.00;;;13.95;;
3407;SDS011;1717;50.240;8.406;2023-03-01T08:54:31;22.87;;;15.40;;
3407;SDS011;1717;50.240;8.406;2023-03-01T08:57:00;22.48;;;14.70;;
3407;SDS011;1717;50.240;8.406;2023-03-01T08:59:29;25.10;;;14.67;;
3407;SDS011;1717;50.240;8.406;2023-03-01T09:02:00;25.42;;;15.57;;
3407;SDS011;1717;50.240;8.406;2023-03-01T09:04:27;25.00;;;15.55;;
3407;SDS011;1717;50.240;8.406;2023-03-01T09:06:54;23.42;;;15.40;;
3407;SDS011;1717;50.240;8.406;2023-03-01T09:09:21;26.07;;;16.00;;
3407;SDS011;1717;50.240;8.406;2023-03-01T09:11:48;23.33;;;15.70;;
3407;SDS011;1717;50.240;8.406;2023-03-01T09:14:15;27.38;;;16.98;;
3407;SDS011;1717;50.240;8.406;2023-03-01T09:16:44;23.48;;;16.08;;
3407;SDS011;1717;50.240;8.406;2023-03-01T09:19:11;23.10;;;15.63;;
3407;SDS011;1717;50.240;8.406;2023-03-01T09:21:38;23.10;;;15.32;;
3407;SDS011;1717;50.240;8.406;2023-03-01T09:24:05;25.27;;;15.33;;
3407;SDS011;1717;50.240;8.406;2023-03-01T09:26:33;30.27;;;16.27;;
3407;SDS011;1717;50.240;8.406;2023-03-01T09:29:00;24.70;;;17.10;;
3407;SDS011;1717;50.240;8.406;2023-03-01T09:31:27;24.42;;;15.00;;
3407;SDS011;1717;50.240;8.406;2023-03-01T09:33:55;27.38;;;16.92;;
3407;SDS011;1717;50.240;8.406;2023-03-01T09:36:22;25.40;;;17.33;;
3407;SDS011;1717;50.240;8.406;2023-03-01T09:38:51;26.25;;;15.38;;
3407;SDS011;1717;50.240;8.406;2023-03-01T09:41:25;23.33;;;16.15;;
3407;SDS011;1717;50.240;8.406;2023-03-01T09:44:04;25.98;;;15.55;;
3407;SDS011;1717;50.240;8.406;2023-03-01T09:46:41;22.25;;;15.20;;
3407;SDS011;1717;50.240;8.406;2023-03-01T09:49:12;25.90;;;15.43;;
3407;SDS011;1717;50.240;8.406;2023-03-01T09:51:42;24.60;;;15.10;;
3407;SDS011;1717;50.240;8.406;2023-03-01T09:54:14;23.17;;;14.00;;
3407;SDS011;1717;50.240;8.406;2023-03-01T09:56:41;28.50;;;14.70;;
3407;SDS011;1717;50.240;8.406;2023-03-01T09:59:16;25.87;;;16.07;;
3407;SDS011;1717;50.240;8.406;2023-03-01T10:01:53;21.03;;;14.43;;
3407;SDS011;1717;50.240;8.406;2023-03-01T10:04:32;22.47;;;15.20;;
3407;SDS011;1717;50.240;8.406;2023-03-01T10:07:13;23.77;;;15.50;;
3407;SDS011;1717;50.240;8.406;2023-03-01T10:09:47;23.02;;;15.45;;
3407;SDS011;1717;50.240;8.406;2023-03-01T10:12:15;22.90;;;14.30;;
3407;SDS011;1717;50.240;8.406;2023-03-01T10:14:46;26.48;;;15.55;;
3407;SDS011;1717;50.240;8.406;2023-03-01T10:17:22;23.00;;;15.67;;
3407;SDS011;1717;50.240;8.406;2023-03-01T10:19:55;22.97;;;16.03;;
3407;SDS011;1717;50.240;8.406;2023-03-01T10:22:25;20.33;;;13.97;;
3407;SDS011;1717;50.240;8.406;2023-03-01T10:24:54;24.97;;;15.10;;
3407;SDS011;1717;50.240;8.406;2023-03-01T10:27:24;23.60;;;15.02;;
3407;SDS011;1717;50.240;8.406;2023-03-01T10:29:54;29.13;;;16.05;;
3407;SDS011;1717;50.240;8.406;2023-03-01T10:32:28;23.38;;;15.50;;
3407;SDS011;1717;50.240;8.406;2023-03-01T10:34:57;24.17;;;16.52;;
3407;SDS011;1717;50.240;8.406;2023-03-01T10:37:24;18.65;;;12.40;;
3407;SDS011;1717;50.240;8.406;2023-03-01T10:39:58;23.17;;;13.93;;
3407;SDS011;1717;50.240;8.406;2023-03-01T10:42:34;16.30;;;10.90;;
3407;SDS011;1717;50.240;8.406;2023-03-01T10:45:32;20.00;;;12.63;;
3407;SDS011;1717;50.240;8.406;2023-03-01T10:48:05;16.23;;;12.03;;
3407;SDS011;1717;50.240;8.406;2023-03-01T10:50:40;20.30;;;11.80;;
3407;SDS011;1717;50.240;8.406;2023-03-01T10:53:19;14.93;;;10.50;;
3407;SDS011;1717;50.240;8.406;2023-03-01T10:55:48;32.33;;;14.33;;
3407;SDS011;1717;50.240;8.406;2023-03-01T10:59:00;25.00;;;14.83;;
3407;SDS011;1717;50.240;8.406;2023-03-01T11:01:29;27.10;;;14.40;;
3407;SDS011;1717;50.240;8.406;2023-03-01T11:13:25;21.60;;;14.23;;
3407;SDS011;1717;50.240;8.406;2023-03-01T11:15:58;23.40;;;14.27;;
3407;SDS011;1717;50.240;8.406;2023-03-01T11:18:26;20.83;;;13.83;;
3407;SDS011;1717;50.240;8.406;2023-03-01T11:20:56;20.33;;;12.87;;
3407;SDS011;1717;50.240;8.406;2023-03-01T11:23:25;19.03;;;12.83;;
3407;SDS011;1717;50.240;8.406;2023-03-01T11:25:56;18.37;;;12.17;;
3407;SDS011;1717;50.240;8.406;2023-03-01T11:28:27;21.80;;;12.40;;
3407;SDS011;1717;50.240;8.406;2023-03-01T11:30:56;19.67;;;13.23;;
3407;SDS011;1717;50.240;8.406;2023-03-01T11:33:30;20.30;;;13.50;;
3407;SDS011;1717;50.240;8.406;2023-03-01T11:36:05;17.47;;;12.60;;
3407;SDS011;1717;50.240;8.406;2023-03-01T11:38:40;19.80;;;12.63;;
3407;SDS011;1717;50.240;8.406;2023-03-01T11:41:07;19.07;;;11.90;;
3407;SDS011;1717;50.240;8.406;2023-03-01T11:43:44;20.03;;;14.30;;
3407;SDS011;1717;50.240;8.406;2023-03-01T11:49:12;21.70;;;12.30;;
3407;SDS011;1717;50.240;8.406;2023-03-01T11:51:50;15.67;;;10.60;;
3407;SDS011;1717;50.240;8.406;2023-03-01T11:54:26;19.13;;;13.00;;
3407;SDS011;1717;50.240;8.406;2023-03-01T11:57:07;21.67;;;12.57;;
3407;SDS011;1717;50.240;8.406;2023-03-01T12:00:04;18.50;;;12.47;;
3407;SDS011;1717;50.240;8.406;2023-03-01T12:08:30;17.60;;;12.00;;
3407;SDS011;1717;50.240;8.406;2023-03-01T12:11:03;19.83;;;12.77;;
3407;SDS011;1717;50.240;8.406;2023-03-01T12:13:51;22.17;;;12.57;;
3407;SDS011;1717;50.240;8.406;2023-03-01T12:16:38;18.07;;;11.10;;
3407;SDS011;1717;50.240;8.406;2023-03-01T12:19:23;20.50;;;12.87;;
3407;SDS011;1717;50.240;8.406;2023-03-01T12:22:08;22.67;;;12.07;;
3407;SDS011;1717;50.240;8.406;2023-03-01T12:24:52;19.93;;;12.17;;
3407;SDS011;1717;50.240;8.406;2023-03-01T12:27:55;17.17;;;11.67;;
3407;SDS011;1717;50.240;8.406;2023-03-01T12:30:34;16.57;;;11.67;;
3407;SDS011;1717;50.240;8.406;2023-03-01T12:33:15;18.63;;;11.60;;
3407;SDS011;1717;50.240;8.406;2023-03-01T12:36:01;12.97;;;10.60;;
3407;SDS011;1717;50.240;8.406;2023-03-01T12:38:54;13.17;;;10.10;;
3407;SDS011;1717;50.240;8.406;2023-03-01T12:41:37;17.70;;;11.13;;
3407;SDS011;1717;50.240;8.406;2023-03-01T12:44:26;16.97;;;10.73;;
3407;SDS011;1717;50.240;8.406;2023-03-01T12:47:12;17.90;;;10.27;;
3407;SDS011;1717;50.240;8.406;2023-03-01T12:49:51;17.97;;;10.97;;
3407;SDS011;1717;50.240;8.406;2023-03-01T12:52:22;18.60;;;10.80;;
3407;SDS011;1717;50.240;8.406;2023-03-01T12:54:58;14.37;;;11.17;;
3407;SDS011;1717;50.240;8.406;2023-03-01T12:57:29;14.47;;;9.80;;
3407;SDS011;1717;50.240;8.406;2023-03-01T13:00:06;16.13;;;11.10;;
3407;SDS011;1717;50.240;8.406;2023-03-01T13:02:49;16.47;;;10.70;;
3407;SDS011;1717;50.240;8.406;2023-03-01T13:05:26;14.10;;;9.87;;
3407;SDS011;1717;50.240;8.406;2023-03-01T13:08:01;14.13;;;10.23;;
3407;SDS011;1717;50.240;8.406;2023-03-01T13:10:39;12.63;;;9.80;;
3407;SDS011;1717;50.240;8.406;2023-03-01T13:13:14;14.30;;;9.60;;
3407;SDS011;1717;50.240;8.406;2023-03-01T13:15:46;15.27;;;10.00;;
3407;SDS011;1717;50.240;8.406;2023-03-01T13:18:31;14.03;;;10.17;;
3407;SDS011;1717;50.240;8.406;2023-03-01T13:21:01;12.43;;;9.17;;
3407;SDS011;1717;50.240;8.406;2023-03-01T13:23:31;15.20;;;9.87;;
3407;SDS011;1717;50.240;8.406;2023-03-01T13:26:11;14.43;;;10.20;;
3407;SDS011;1717;50.240;8.406;2023-03-01T13:28:40;13.80;;;9.27;;
3407;SDS011;1717;50.240;8.406;2023-03-01T13:34:40;14.97;;;8.83;;
3407;SDS011;1717;50.240;8.406;2023-03-01T13:37:29;11.27;;;8.60;;
3407;SDS011;1717;50.240;8.406;2023-03-01T13:40:05;11.70;;;9.33;;
3407;SDS011;1717;50.240;8.406;2023-03-01T13:43:27;11.60;;;8.20;;
3407;SDS011;1717;50.240;8.406;2023-03-01T13:45:56;12.90;;;9.17;;
3407;SDS011;1717;50.240;8.406;2023-03-01T13:48:25;12.00;;;9.30;;
3407;SDS011;1717;50.240;8.406;2023-03-01T13:50:54;17.50;;;9.30;;
3407;SDS011;1717;50.240;8.406;2023-03-01T13:53:26;12.77;;;10.10;;
3407;SDS011;1717;50.240;8.406;2023-03-01T13:55:57;12.43;;;9.43;;
3407;SDS011;1717;50.240;8.406;2023-03-01T13:58:29;11.50;;;9.77;;
3407;SDS011;1717;50.240;8.406;2023-03-01T14:00:59;11.47;;;9.57;;
3407;SDS011;1717;50.240;8.406;2023-03-01T14:03:29;14.33;;;8.93;;
3407;SDS011;1717;50.240;8.406;2023-03-01T14:05:58;12.47;;;8.70;;
3407;SDS011;1717;50.240;8.406;2023-03-01T14:08:28;12.20;;;8.90;;
3407;SDS011;1717;50.240;8.406;2023-03-01T14:11:03;13.20;;;9.70;;
3407;SDS011;1717;50.240;8.406;2023-03-01T14:13:51;16.00;;;10.40;;
3407;SDS011;1717;50.240;8.406;2023-03-01T14:16:31;10.80;;;9.07;;
3407;SDS011;1717;50.240;8.406;2023-03-01T14:19:10;11.20;;;8.10;;
3407;SDS011;1717;50.240;8.406;2023-03-01T14:21:43;13.67;;;9.40;;
3407;SDS011;1717;50.240;8.406;2023-03-01T14:24:17;12.00;;;9.90;;
3407;SDS011;1717;50.240;8.406;2023-03-01T14:26:46;13.07;;;9.10;;
3407;SDS011;1717;50.240;8.406;2023-03-01T14:29:28;12.70;;;8.93;;
3407;SDS011;1717;50.240;8.406;2023-03-01T14:32:11;11.87;;;9.90;;
3407;SDS011;1717;50.240;8.406;2023-03-01T14:34:42;11.50;;;9.40;;
3407;SDS011;1717;50.240;8.406;2023-03-01T14:37:11;12.40;;;9.60;;
3407;SDS011;1717;50.240;8.406;2023-03-01T14:39:44;11.10;;;8.83;;
3407;SDS011;1717;50.240;8.406;2023-03-01T14:42:11;14.40;;;9.40;;
3407;SDS011;1717;50.240;8.406;2023-03-01T14:44:41;12.93;;;9.03;;
3407;SDS011;1717;50.240;8.406;2023-03-01T14:47:11;12.40;;;9.90;;
3407;SDS011;1717;50.240;8.406;2023-03-01T14:49:40;13.10;;;9.17;;
3407;SDS011;1717;50.240;8.406;2023-03-01T14:52:17;13.87;;;9.30;;
3407;SDS011;1717;50.240;8.406;2023-03-01T14:54:46;11.27;;;8.63;;
3407;SDS011;1717;50.240;8.406;2023-03-01T14:57:16;11.57;;;8.93;;
3407;SDS011;1717;50.240;8.406;2023-03-01T14:59:48;13.50;;;8.90;;
3407;SDS011;1717;50.240;8.406;2023-03-01T15:02:18;11.63;;;8.23;;
3407;SDS011;1717;50.240;8.406;2023-03-01T15:04:48;10.37;;;9.17;;
3407;SDS011;1717;50.240;8.406;2023-03-01T15:07:17;9.87;;;8.33;;
3407;SDS011;1717;50.240;8.406;2023-03-01T15:09:45;14.70;;;10.07;;
3407;SDS011;1717;50.240;8.406;2023-03-01T15:12:31;13.57;;;9.80;;
3407;SDS011;1717;50.240;8.406;2023-03-01T15:15:18;14.10;;;9.23;;
3407;SDS011;1717;50.240;8.406;2023-03-01T15:18:00;13.13;;;10.10;;
3407;SDS011;1717;50.240;8.406;2023-03-01T15:20:29;9.60;;;8.20;;
3407;SDS011;1717;50.240;8.406;2023-03-01T15:23:00;11.47;;;9.00;;
3407;SDS011;1717;50.240;8.406;2023-03-01T15:25:28;12.67;;;9.73;;
3407;SDS011;1717;50.240;8.406;2023-03-01T15:27:56;13.40;;;8.80;;
3407;SDS011;1717;50.240;8.406;2023-03-01T15:30:27;9.70;;;8.43;;
3407;SDS011;1717;50.240;8.406;2023-03-01T15:35:54;13.70;;;9.40;;
3407;SDS011;1717;50.240;8.406;2023-03-01T15:38:29;12.17;;;9.90;;